METAR Formatted Surface Weather Observation
Issued by NWS

Home | Current Version | Previous Version | Text Only | Print | Product List | Glossary On
Versions: 1 2 3 4 5 6 7 8 9 10 11 12 13 14 15 16 17 18 19 20
860
SAUS46 KLOX 081857
MTRNLC
METAR KNLC 081856Z 35004KT 3SM HZ CLR 13/10 A3028 RMK AO2 SLP256
RH/80 T01330100



USA.gov is the U.S. government's official web portal to all federal, state and local government web resources and services.